Albion, NE

8:11 PM CST on December 06, 2019 (GMT -0600)
Albion Municipal

Weather History for KBVN - November, 2019

Change the Weather History Date:

Sunday, November 17, 2019

  Actual Average (KOFK) Record (KOFK)
Temperature  
Mean Temperature 42 °F -  
Max Temperature 53 °F 48 °F 72 °F (1941)
Min Temperature 31 °F 25 °F -5 °F (1959)
Degree Days  
Heating Degree Days 23    
Moisture  
Dew Point 32 °F    
Average Humidity 71    
Maximum Humidity 94    
Minimum Humidity 41    
Precipitation  
Precipitation 0.00 in - - ()
Sea Level Pressure  
Sea Level Pressure 29.98 in    
Wind  
Wind Speed 9 mph ()    
Max Wind Speed 17 mph    
Max Gust Speed 25 mph    
Visibility 10.0 miles    
Events      
Averages and records for this station are not official NWS values.
T = Trace of Precipitation, MM = Missing Value Source: Averaged Metar Reports

Daily Weather History Graph

Daily Weather History Graph

Search for Another Location

Airport or City:

Astronomy

Nov. 17, 2019 Rise Set
Actual Time 7:23 AM CST 5:10 PM CST
Civil Twilight 6:53 AM CST 5:40 PM CST
Nautical Twilight 6:19 AM CST 6:14 PM CST
Astronomical Twilight 5:46 AM CST 6:46 PM CST
Moon 9:47 PM CST (11/17) 12:11 PM CST (11/17)
Length of Visible Light 10h 46m
Length of Day
9h 46m
Waning Gibbous, 73% of the Moon is Illuminated
Nov 17
Waning Gibbous
Nov 19
Last Quarter
Nov 26
New
Dec 4
First Quarter
Dec 11
Full

Hourly Weather History & Observations

Time (CST) Temp. Windchill Dew Point Humidity Pressure Visibility Wind Dir Wind Speed Gust Speed Precip Events Conditions
12:15 AM 46.8 °F - 40.1 °F 78% 30.03 in 10.0 mi NW 15.0 mph - N/A   Overcast
12:35 AM 47.3 °F - 39.2 °F 73% 30.03 in 10.0 mi North 16.1 mph 25.3 mph N/A   Overcast
12:55 AM 46.8 °F - 38.3 °F 72% 30.04 in 10.0 mi NNW 17.3 mph 21.9 mph N/A   Overcast
1:15 AM 45.9 °F 39.4 °F 37.6 °F 73% 30.03 in 10.0 mi NNW 15.0 mph - N/A   Mostly Cloudy
1:35 AM 44.8 °F 38.3 °F 37.0 °F 74% 30.03 in 10.0 mi NNW 13.8 mph 18.4 mph N/A   Overcast
1:55 AM 44.8 °F 38.0 °F 36.7 °F 73% 30.03 in 10.0 mi NNW 15.0 mph - N/A   Overcast
2:35 AM 41.2 °F 35.5 °F 36.7 °F 84% 30.05 in 10.0 mi NW 9.2 mph - N/A   Mostly Cloudy
2:55 AM 40.3 °F 35.5 °F 36.3 °F 86% 30.05 in 10.0 mi NW 6.9 mph - N/A   Scattered Clouds
3:15 AM 39.4 °F 33.8 °F 35.6 °F 86% 30.05 in 10.0 mi NW 8.1 mph - N/A   Clear
3:35 AM 39.0 °F 32.8 °F 35.2 °F 86% 30.04 in 10.0 mi NNW 9.2 mph - N/A   Clear
3:55 AM 37.6 °F 31.0 °F 34.7 °F 89% 30.04 in 10.0 mi NNW 9.2 mph - N/A   Clear
4:15 AM 37.2 °F 31.9 °F 34.2 °F 89% 30.05 in 10.0 mi NW 6.9 mph - N/A   Clear
4:35 AM 38.3 °F 32.5 °F 34.7 °F 87% 30.05 in 10.0 mi NW 8.1 mph - N/A   Clear
4:55 AM 38.3 °F 31.9 °F 34.5 °F 86% 30.04 in 10.0 mi NW 9.2 mph - N/A   Scattered Clouds
5:15 AM 37.2 °F 31.2 °F 34.0 °F 88% 30.03 in 10.0 mi NW 8.1 mph - N/A   Scattered Clouds
5:35 AM 36.9 °F 31.4 °F 33.8 °F 89% 30.03 in 10.0 mi NW 6.9 mph - N/A   Clear
5:55 AM 36.5 °F 29.2 °F 33.4 °F 89% 30.03 in 10.0 mi NW 10.4 mph - N/A   Clear
6:15 AM 35.2 °F 28.1 °F 32.7 °F 91% 30.03 in 10.0 mi NW 9.2 mph - N/A   Clear
6:55 AM 34.2 °F 27.5 °F 32.0 °F 92% 30.04 in 10.0 mi NNW 8.1 mph - N/A   Clear
7:15 AM 33.3 °F 25.7 °F 31.5 °F 93% 30.04 in 10.0 mi NW 9.2 mph - N/A   Clear
7:35 AM 32.9 °F 26.7 °F 31.3 °F 94% 30.05 in 10.0 mi NW 6.9 mph - N/A   Clear
7:55 AM 32.9 °F 25.9 °F 31.1 °F 93% 30.05 in 10.0 mi NW 8.1 mph - N/A   Clear
8:15 AM 34.5 °F 27.3 °F 32.0 °F 90% 30.06 in 10.0 mi NW 9.2 mph - N/A   Clear
8:55 AM 37.6 °F 30.0 °F 32.9 °F 83% 30.06 in 10.0 mi NW 11.5 mph - N/A   Clear
9:15 AM 39.6 °F 32.1 °F 33.3 °F 78% 30.05 in 10.0 mi NW 12.7 mph - N/A   Clear
9:35 AM 41.2 °F 33.7 °F 33.8 °F 75% 30.05 in 10.0 mi NNW 13.8 mph 17.3 mph N/A   Clear
9:55 AM 42.6 °F 36.8 °F 34.0 °F 71% 30.05 in 10.0 mi NW 10.4 mph - N/A   Clear
10:15 AM 43.7 °F 38.1 °F 34.7 °F 71% 30.05 in 10.0 mi NW 10.4 mph - N/A   Clear
10:35 AM 45.5 °F 40.8 °F 34.9 °F 66% 30.04 in 10.0 mi NW 9.2 mph - N/A   Clear
10:55 AM 46.8 °F - 34.7 °F 63% 30.04 in 10.0 mi NW 11.5 mph - N/A   Clear
11:15 AM 47.5 °F - 34.0 °F 59% 30.03 in 10.0 mi NW 12.7 mph - N/A   Clear
11:35 AM 48.4 °F - 34.2 °F 58% 30.03 in 10.0 mi NW 15.0 mph 19.6 mph N/A   Clear
11:55 AM 49.1 °F - 34.0 °F 56% 30.02 in 10.0 mi NW 13.8 mph 20.7 mph N/A   Clear
12:15 PM 50.0 °F - 33.8 °F 54% 30.01 in 10.0 mi NW 15.0 mph 18.4 mph N/A   Clear
12:35 PM 50.2 °F - 32.9 °F 52% 30.00 in 10.0 mi NNW 12.7 mph 21.9 mph N/A   Clear
12:55 PM 51.3 °F - 32.4 °F 48% 30.00 in 10.0 mi NW 13.8 mph 20.7 mph N/A   Clear
1:15 PM 51.6 °F - 31.8 °F 47% 29.99 in 10.0 mi NW 13.8 mph - N/A   Clear
1:35 PM 52.5 °F - 31.5 °F 45% 29.98 in 10.0 mi NW 11.5 mph - N/A   Clear
1:55 PM 52.7 °F - 30.9 °F 43% 29.98 in 10.0 mi NNW 12.7 mph - N/A   Clear
2:15 PM 52.7 °F - 30.7 °F 43% 29.97 in 10.0 mi NW 13.8 mph - N/A   Clear
2:35 PM 53.2 °F - 30.4 °F 42% 29.96 in 10.0 mi NW 12.7 mph 17.3 mph N/A   Clear
2:55 PM 53.1 °F - 30.7 °F 43% 29.96 in 10.0 mi NW 9.2 mph - N/A   Clear
3:15 PM 53.2 °F - 30.2 °F 41% 29.96 in 10.0 mi NW 10.4 mph - N/A   Clear
3:35 PM 53.1 °F - 30.2 °F 42% 29.95 in 10.0 mi NNW 9.2 mph - N/A   Clear
3:55 PM 52.9 °F - 30.2 °F 42% 29.94 in 10.0 mi NNW 8.1 mph - N/A   Clear
4:15 PM 52.2 °F - 30.0 °F 43% 29.93 in 10.0 mi North 5.8 mph - N/A   Clear
4:35 PM 50.0 °F - 30.2 °F 47% 29.94 in 10.0 mi NW 3.5 mph - N/A   Clear
4:55 PM 46.2 °F - 29.5 °F 52% 29.94 in 10.0 mi Calm Calm - N/A   Clear
5:15 PM 41.0 °F 39.0 °F 28.8 °F 62% 29.93 in 10.0 mi NE 3.5 mph - N/A   Clear
5:35 PM 39.0 °F - 28.9 °F 67% 29.93 in 10.0 mi Calm Calm - N/A   Clear
5:55 PM 40.6 °F - 29.1 °F 64% 29.92 in 10.0 mi Calm Calm - N/A   Clear
6:10 PM 37.6 °F - 28.4 °F 69% 29.92 in 10.0 mi Calm Calm - N/A   Clear
6:55 PM 35.8 °F - 27.5 °F 72% 29.92 in 10.0 mi Calm Calm - N/A   Clear
7:15 PM 34.3 °F - 28.6 °F 79% 29.91 in 10.0 mi Calm Calm - N/A   Clear
7:35 PM 34.0 °F - 27.7 °F 78% 29.90 in 10.0 mi Calm Calm - N/A   Clear
7:55 PM 34.2 °F - 26.6 °F 74% 29.90 in 10.0 mi Calm Calm - N/A   Clear
8:15 PM 32.9 °F - 28.0 °F 82% 29.89 in 10.0 mi Calm Calm - N/A   Clear
8:35 PM 33.4 °F - 27.7 °F 79% 29.89 in 10.0 mi Calm Calm - N/A   Clear
8:55 PM 33.1 °F - 27.7 °F 81% 29.89 in 10.0 mi Calm Calm - N/A   Clear
9:15 PM 31.3 °F - 27.0 °F 84% 29.88 in 10.0 mi Calm Calm - N/A   Clear
9:35 PM 33.6 °F 30.6 °F 27.3 °F 78% 29.87 in 10.0 mi SE 3.5 mph - N/A   Clear
9:55 PM 32.2 °F 28.9 °F 26.6 °F 80% 29.86 in 10.0 mi SE 3.5 mph - N/A   Clear
10:15 PM 36.7 °F 32.9 °F 28.2 °F 71% 29.85 in 10.0 mi SE 4.6 mph - N/A   Clear
10:35 PM 36.3 °F 32.5 °F 28.2 °F 72% 29.85 in 10.0 mi SSE 4.6 mph - N/A   Clear
10:55 PM 36.1 °F - 28.8 °F 75% 29.84 in 10.0 mi Calm Calm - N/A   Clear
11:15 PM 37.8 °F 35.3 °F 28.6 °F 69% 29.83 in 10.0 mi SSE 3.5 mph - N/A   Clear
11:35 PM 36.1 °F 33.5 °F 28.6 °F 74% 29.83 in 10.0 mi SE 3.5 mph - N/A   Clear
11:55 PM 36.9 °F 33.1 °F 29.1 °F 74% 29.81 in 10.0 mi SE 4.6 mph - N/A   Clear